Airfield :







YOU CAN JOIN US ON...

 
LOGIN :

Register | Disclaimer

   EN    FR    IT 

 









Legend :    VFR   Marginal VFR   IFR   Intensive IFR   Very Intensive IFR
Visi :
Ceiling :
>= 8 km
>= 3000ft
5 to 8 km
1000 to 3000 ft
1500m to 5 km
500 to 1000 ft
800 to 1500m
200 to 500 ft
< 800m
< 200 ft
Symbols :   Thunderstorms  Fog  Heavy snow  Heavy precipitations  Wind > 20 kt






- Airport Elevation : 1194 ft


KPSF - Pittsfield Municipal

CURRENT METAR :
  • 010554Z AUTO 06004KT 10SM SCT022 OVC050 01/M03 A2989 RMK AO2 SLP125 I6000 T00111028 10044 21006 55007

EXPIRED METARs :
  • 010454Z AUTO 06004KT 6SM BR OVC050 00/M02 A2989 RMK AO2 SLP124 I1000 T00001017 400671006
  • 010354Z AUTO 00000KT 8SM BKN042 M01/M02 A2990 RMK AO2 SLP130 T10061017
  • 010341Z AUTO 00000KT 4SM BR FEW042 00/M01 A2991 RMK AO2 T00001011
  • 010332Z AUTO 00000KT 2SM BR CLR M01/M02 A2991 RMK AO2 VIS 1V4 T10061022

TAF KPSF
Valid from the 01 at 06:00 until the 02 at 06:00 UTC


010522Z 0106/0206 06003KT P6SM OVC050
FM011800 35006KT P6SM BKN050
FM012100 34008KT P6SM SCT050
FM020200 32005KT P6SM BKN035



MET'MAP, your aeronautical weather chart ! - Copyright ORBIFLY December 2007 - Disclaimer

ORBIFLY MET'MAP TEAM :

Programming & Development : Alexandra Zaïnal
Concept & original design : Baudouin d'Aumeries
Assistance for programming : Marc-Olivier Méhu
Technical & hardware support : Manuel Goepfert

Contact : metmap@orbifly.com




SOURCES & CREDITS :

   NOAA